N65773 KCOS-
Flight info
| Callsign | N65773 |
|---|---|
| Flight time | N/A |
| Altitude | VFR |
| Route | |
| Aircraft | C172/L-VGD/C |
Departure
| Time | 2026-04-21 02:23 |
|---|---|
| Airport | City of Colorado Springs Municipal Airport (KCOS) |
Arrival
| Time | N/A |
|---|---|
| Airport | - |
| Time | Latitude | Longitude | Altitude | Speed | Heading |
|---|---|---|---|---|---|
| 2026-04-21 02:18 | 38.79398 | -104.71709 | 6189 ft | 0 kts | 109° |
| 2026-04-21 02:20 | 38.79397 | -104.71628 | 6190 ft | 11 kts | 69° |
| 2026-04-21 02:20 | 38.79455 | -104.71594 | 6190 ft | 15 kts | 1° |
| 2026-04-21 02:21 | 38.79679 | -104.71593 | 6190 ft | 48 kts | 359° |
| 2026-04-21 02:21 | 38.80098 | -104.71598 | 6187 ft | 69 kts | 2° |
| 2026-04-21 02:21 | 38.80579 | -104.71598 | 6227 ft | 70 kts | 4° |
| 2026-04-21 02:21 | 38.81110 | -104.71601 | 6229 ft | 81 kts | 5° |
| 2026-04-21 02:22 | 38.81675 | -104.71600 | 6321 ft | 80 kts | 7° |
| 2026-04-21 02:22 | 38.82240 | -104.71603 | 6405 ft | 83 kts | 4° |
| 2026-04-21 02:22 | 38.82836 | -104.71618 | 6552 ft | 87 kts | 4° |
| 2026-04-21 02:22 | 38.83459 | -104.71641 | 6656 ft | 91 kts | 0° |
| 2026-04-21 02:23 | 38.84106 | -104.71684 | 6758 ft | 94 kts | 353° |
| 2026-04-21 02:23 | 38.84374 | -104.72324 | 6861 ft | 95 kts | 260° |
| 2026-04-21 02:23 | 38.84321 | -104.73137 | 7029 ft | 92 kts | 265° |
| 2026-04-21 02:23 | 38.84296 | -104.73678 | 7132 ft | 89 kts | 261° |
| 2026-04-21 02:24 | 38.84227 | -104.74710 | 7300 ft | 90 kts | 256° |
| 2026-04-21 02:24 | 38.83954 | -104.75384 | 7361 ft | 90 kts | 201° |
| 2026-04-21 02:24 | 38.83528 | -104.75500 | 7378 ft | 97 kts | 186° |
| 2026-04-21 02:24 | 38.82856 | -104.75628 | 7442 ft | 100 kts | 186° |
| 2026-04-21 02:25 | 38.82176 | -104.75673 | 7612 ft | 92 kts | 177° |
| 2026-04-21 02:25 | 38.81526 | -104.75627 | 7563 ft | 96 kts | 176° |
| 2026-04-21 02:25 | 38.80852 | -104.75566 | 7526 ft | 97 kts | 176° |
| 2026-04-21 02:25 | 38.80188 | -104.75521 | 7518 ft | 93 kts | 175° |
| 2026-04-21 02:26 | 38.79540 | -104.75475 | 7469 ft | 95 kts | 176° |
| 2026-04-21 02:26 | 38.78860 | -104.75420 | 7357 ft | 100 kts | 176° |
| 2026-04-21 02:26 | 38.78175 | -104.75370 | 7165 ft | 95 kts | 175° |
| 2026-04-21 02:26 | 38.77576 | -104.75216 | 7018 ft | 87 kts | 135° |
| 2026-04-21 02:27 | 38.77431 | -104.74461 | 6784 ft | 88 kts | 87° |
| 2026-04-21 02:27 | 38.77471 | -104.73675 | 6688 ft | 92 kts | 86° |
| 2026-04-21 02:27 | 38.77540 | -104.72841 | 6672 ft | 96 kts | 83° |
| 2026-04-21 02:27 | 38.77626 | -104.71998 | 6653 ft | 95 kts | 85° |
| 2026-04-21 02:28 | 38.77967 | -104.71506 | 6617 ft | 81 kts | 356° |
| 2026-04-21 02:28 | 38.78511 | -104.71610 | 6394 ft | 77 kts | 3° |
| 2026-04-21 02:28 | 38.79039 | -104.71600 | 6281 ft | 74 kts | 4° |
| 2026-04-21 02:28 | 38.79535 | -104.71597 | 6191 ft | 64 kts | 7° |
| 2026-04-21 02:29 | 38.79876 | -104.71583 | 6187 ft | 39 kts | 356° |
| 2026-04-21 02:29 | 38.80080 | -104.71589 | 6187 ft | 23 kts | 0° |
| 2026-04-21 02:29 | 38.80248 | -104.71591 | 6186 ft | 24 kts | 360° |
| 2026-04-21 02:29 | 38.80364 | -104.71660 | 6188 ft | 18 kts | 273° |
| 2026-04-21 02:30 | 38.80364 | -104.71805 | 6188 ft | 15 kts | 268° |
| 2026-04-21 02:30 | 38.80367 | -104.71923 | 6188 ft | 12 kts | 280° |
| 2026-04-21 02:30 | 38.80423 | -104.71959 | 6188 ft | 12 kts | 359° |
| 2026-04-21 02:30 | 38.80507 | -104.71960 | 6188 ft | 15 kts | 2° |
| 2026-04-21 02:31 | 38.80599 | -104.71972 | 6188 ft | 12 kts | 335° |
| 2026-04-21 02:31 | 38.80667 | -104.71995 | 6188 ft | 9 kts | 356° |
| 2026-04-21 02:31 | 38.80705 | -104.71995 | 6188 ft | 0 kts | 359° |
| 2026-04-21 02:31 | 38.80738 | -104.71999 | 6188 ft | 11 kts | 335° |
| 2026-04-21 02:32 | 38.80751 | -104.72014 | 6188 ft | 0 kts | 304° |